sensor_id;sensor_type;location;lat;lon;timestamp;temperature;humidity
38237;DHT22;50101;49.438;11.098;2024-03-29T00:02:06;19.50;55.10
38237;DHT22;50101;49.438;11.098;2024-03-29T00:04:31;19.50;55.10
38237;DHT22;50101;49.438;11.098;2024-03-29T00:06:57;19.50;55.10
38237;DHT22;50101;49.438;11.098;2024-03-29T00:09:23;19.50;55.10
38237;DHT22;50101;49.438;11.098;2024-03-29T00:11:49;19.50;55.10
38237;DHT22;50101;49.438;11.098;2024-03-29T00:14:14;19.50;55.00
38237;DHT22;50101;49.438;11.098;2024-03-29T00:16:40;19.50;55.10
38237;DHT22;50101;49.438;11.098;2024-03-29T00:19:06;19.50;55.10
38237;DHT22;50101;49.438;11.098;2024-03-29T00:23:58;19.50;55.00
38237;DHT22;50101;49.438;11.098;2024-03-29T00:26:24;19.50;55.10
38237;DHT22;50101;49.438;11.098;2024-03-29T00:28:50;19.50;55.50
38237;DHT22;50101;49.438;11.098;2024-03-29T00:31:15;19.50;55.00
38237;DHT22;50101;49.438;11.098;2024-03-29T00:33:41;19.50;55.00
38237;DHT22;50101;49.438;11.098;2024-03-29T00:38:33;19.50;55.00
38237;DHT22;50101;49.438;11.098;2024-03-29T00:40:59;19.40;55.40
38237;DHT22;50101;49.438;11.098;2024-03-29T00:43:25;19.50;55.00
38237;DHT22;50101;49.438;11.098;2024-03-29T00:45:51;19.50;55.00
38237;DHT22;50101;49.438;11.098;2024-03-29T00:48:17;19.40;54.90
38237;DHT22;50101;49.438;11.098;2024-03-29T00:50:45;19.40;54.90
38237;DHT22;50101;49.438;11.098;2024-03-29T00:53:11;19.40;54.90
38237;DHT22;50101;49.438;11.098;2024-03-29T00:55:36;19.40;54.90
38237;DHT22;50101;49.438;11.098;2024-03-29T00:58:03;19.40;54.90
38237;DHT22;50101;49.438;11.098;2024-03-29T01:00:28;19.40;54.90
38237;DHT22;50101;49.438;11.098;2024-03-29T01:02:54;19.40;54.90
38237;DHT22;50101;49.438;11.098;2024-03-29T01:05:20;19.40;54.90
38237;DHT22;50101;49.438;11.098;2024-03-29T01:07:46;19.40;55.40
38237;DHT22;50101;49.438;11.098;2024-03-29T01:10:11;19.40;54.90
38237;DHT22;50101;49.438;11.098;2024-03-29T01:12:38;19.40;54.90
38237;DHT22;50101;49.438;11.098;2024-03-29T01:15:05;19.40;54.90
38237;DHT22;50101;49.438;11.098;2024-03-29T01:17:31;19.40;54.90
38237;DHT22;50101;49.438;11.098;2024-03-29T01:19:57;19.40;54.90
38237;DHT22;50101;49.438;11.098;2024-03-29T01:22:23;19.40;55.40
38237;DHT22;50101;49.438;11.098;2024-03-29T01:24:49;19.40;55.00
38237;DHT22;50101;49.438;11.098;2024-03-29T01:27:14;19.30;54.90
38237;DHT22;50101;49.438;11.098;2024-03-29T01:29:40;19.30;54.90
38237;DHT22;50101;49.438;11.098;2024-03-29T01:32:06;19.30;54.90
38237;DHT22;50101;49.438;11.098;2024-03-29T01:34:32;19.30;54.90
38237;DHT22;50101;49.438;11.098;2024-03-29T01:36:58;19.30;54.80
38237;DHT22;50101;49.438;11.098;2024-03-29T01:39:24;19.30;54.80
38237;DHT22;50101;49.438;11.098;2024-03-29T01:41:54;19.30;55.30
38237;DHT22;50101;49.438;11.098;2024-03-29T01:44:20;19.30;54.80
38237;DHT22;50101;49.438;11.098;2024-03-29T01:46:47;19.30;54.80
38237;DHT22;50101;49.438;11.098;2024-03-29T01:49:13;19.30;54.90
38237;DHT22;50101;49.438;11.098;2024-03-29T01:51:39;19.30;54.80
38237;DHT22;50101;49.438;11.098;2024-03-29T01:54:06;19.30;54.80
38237;DHT22;50101;49.438;11.098;2024-03-29T01:56:35;19.30;55.30
38237;DHT22;50101;49.438;11.098;2024-03-29T01:59:03;19.30;54.80
38237;DHT22;50101;49.438;11.098;2024-03-29T02:01:30;19.30;54.90
38237;DHT22;50101;49.438;11.098;2024-03-29T02:03:56;19.30;54.90
38237;DHT22;50101;49.438;11.098;2024-03-29T02:06:22;19.30;54.80
38237;DHT22;50101;49.438;11.098;2024-03-29T02:08:52;19.30;55.30
38237;DHT22;50101;49.438;11.098;2024-03-29T02:11:19;19.30;55.30
38237;DHT22;50101;49.438;11.098;2024-03-29T02:13:45;19.30;54.80
38237;DHT22;50101;49.438;11.098;2024-03-29T02:16:11;19.20;54.80
38237;DHT22;50101;49.438;11.098;2024-03-29T02:18:37;19.30;54.80
38237;DHT22;50101;49.438;11.098;2024-03-29T02:21:03;19.30;54.90
38237;DHT22;50101;49.438;11.098;2024-03-29T02:23:30;19.30;54.80
38237;DHT22;50101;49.438;11.098;2024-03-29T02:25:58;19.30;54.90
38237;DHT22;50101;49.438;11.098;2024-03-29T02:28:24;19.30;55.40
38237;DHT22;50101;49.438;11.098;2024-03-29T02:30:50;19.30;54.90
38237;DHT22;50101;49.438;11.098;2024-03-29T02:33:16;19.30;54.90
38237;DHT22;50101;49.438;11.098;2024-03-29T02:35:42;19.30;55.30
38237;DHT22;50101;49.438;11.098;2024-03-29T02:38:08;19.30;55.30
38237;DHT22;50101;49.438;11.098;2024-03-29T02:40:34;19.20;54.80
38237;DHT22;50101;49.438;11.098;2024-03-29T02:43:00;19.30;54.90
38237;DHT22;50101;49.438;11.098;2024-03-29T02:45:25;19.20;54.70
38237;DHT22;50101;49.438;11.098;2024-03-29T02:47:51;19.20;54.80
38237;DHT22;50101;49.438;11.098;2024-03-29T02:50:17;19.20;54.80
38237;DHT22;50101;49.438;11.098;2024-03-29T02:52:43;19.20;54.80
38237;DHT22;50101;49.438;11.098;2024-03-29T02:55:09;19.20;55.30
38237;DHT22;50101;49.438;11.098;2024-03-29T02:57:37;19.20;55.30
38237;DHT22;50101;49.438;11.098;2024-03-29T03:00:05;19.20;54.80
38237;DHT22;50101;49.438;11.098;2024-03-29T03:02:31;19.20;54.80
38237;DHT22;50101;49.438;11.098;2024-03-29T03:04:57;19.20;54.80
38237;DHT22;50101;49.438;11.098;2024-03-29T03:07:23;19.20;54.80
38237;DHT22;50101;49.438;11.098;2024-03-29T03:10:07;19.20;54.80
38237;DHT22;50101;49.438;11.098;2024-03-29T03:12:51;19.20;55.30
38237;DHT22;50101;49.438;11.098;2024-03-29T03:15:17;19.20;54.80
38237;DHT22;50101;49.438;11.098;2024-03-29T03:17:43;19.20;54.80
38237;DHT22;50101;49.438;11.098;2024-03-29T03:20:09;19.20;54.80
38237;DHT22;50101;49.438;11.098;2024-03-29T03:22:35;19.20;54.80
38237;DHT22;50101;49.438;11.098;2024-03-29T03:25:01;19.20;54.80
38237;DHT22;50101;49.438;11.098;2024-03-29T03:27:27;19.20;54.90
38237;DHT22;50101;49.438;11.098;2024-03-29T03:29:53;19.20;54.80
38237;DHT22;50101;49.438;11.098;2024-03-29T03:32:19;19.20;54.80
38237;DHT22;50101;49.438;11.098;2024-03-29T03:34:44;19.20;54.80
38237;DHT22;50101;49.438;11.098;2024-03-29T03:37:10;19.20;54.80
38237;DHT22;50101;49.438;11.098;2024-03-29T03:39:37;19.10;54.70
38237;DHT22;50101;49.438;11.098;2024-03-29T03:42:03;19.20;54.80
38237;DHT22;50101;49.438;11.098;2024-03-29T03:44:29;19.10;54.70
38237;DHT22;50101;49.438;11.098;2024-03-29T03:46:55;19.20;54.70
38237;DHT22;50101;49.438;11.098;2024-03-29T03:51:47;19.20;54.80
38237;DHT22;50101;49.438;11.098;2024-03-29T03:54:13;19.10;54.70
38237;DHT22;50101;49.438;11.098;2024-03-29T03:56:39;19.10;55.20
38237;DHT22;50101;49.438;11.098;2024-03-29T03:59:05;19.10;54.70
38237;DHT22;50101;49.438;11.098;2024-03-29T04:01:30;19.10;54.70
38237;DHT22;50101;49.438;11.098;2024-03-29T04:03:56;19.10;54.70
38237;DHT22;50101;49.438;11.098;2024-03-29T04:06:22;19.10;55.20
38237;DHT22;50101;49.438;11.098;2024-03-29T04:08:48;19.10;54.60
38237;DHT22;50101;49.438;11.098;2024-03-29T04:11:13;19.10;54.60
38237;DHT22;50101;49.438;11.098;2024-03-29T04:13:39;19.10;54.60
38237;DHT22;50101;49.438;11.098;2024-03-29T04:16:06;19.10;54.60
38237;DHT22;50101;49.438;11.098;2024-03-29T04:18:34;19.20;54.70
38237;DHT22;50101;49.438;11.098;2024-03-29T04:21:03;19.10;54.60
38237;DHT22;50101;49.438;11.098;2024-03-29T04:23:30;19.10;54.60
38237;DHT22;50101;49.438;11.098;2024-03-29T04:25:57;19.10;54.60
38237;DHT22;50101;49.438;11.098;2024-03-29T04:28:24;19.10;54.70
38237;DHT22;50101;49.438;11.098;2024-03-29T04:30:54;19.10;55.20
38237;DHT22;50101;49.438;11.098;2024-03-29T04:33:20;19.10;55.10
38237;DHT22;50101;49.438;11.098;2024-03-29T04:36:02;19.10;54.60
38237;DHT22;50101;49.438;11.098;2024-03-29T04:38:28;19.10;54.60
38237;DHT22;50101;49.438;11.098;2024-03-29T04:40:56;19.10;55.10
38237;DHT22;50101;49.438;11.098;2024-03-29T04:43:26;19.10;54.60
38237;DHT22;50101;49.438;11.098;2024-03-29T04:46:09;19.10;55.10
38237;DHT22;50101;49.438;11.098;2024-03-29T04:48:39;19.10;54.60
38237;DHT22;50101;49.438;11.098;2024-03-29T04:51:06;19.10;54.60
38237;DHT22;50101;49.438;11.098;2024-03-29T04:53:31;19.10;54.60
38237;DHT22;50101;49.438;11.098;2024-03-29T04:55:58;19.10;54.60
38237;DHT22;50101;49.438;11.098;2024-03-29T04:58:24;19.10;54.60
38237;DHT22;50101;49.438;11.098;2024-03-29T05:00:51;19.10;54.60
38237;DHT22;50101;49.438;11.098;2024-03-29T05:03:18;19.10;54.60
38237;DHT22;50101;49.438;11.098;2024-03-29T05:05:45;19.10;54.60
38237;DHT22;50101;49.438;11.098;2024-03-29T05:10:38;19.10;54.60
38237;DHT22;50101;49.438;11.098;2024-03-29T05:13:04;19.00;54.50
38237;DHT22;50101;49.438;11.098;2024-03-29T05:15:30;19.10;55.10
38237;DHT22;50101;49.438;11.098;2024-03-29T05:17:56;19.10;54.60
38237;DHT22;50101;49.438;11.098;2024-03-29T05:22:48;19.10;54.50
38237;DHT22;50101;49.438;11.098;2024-03-29T05:25:13;19.00;54.40
38237;DHT22;50101;49.438;11.098;2024-03-29T05:27:39;19.10;54.50
38237;DHT22;50101;49.438;11.098;2024-03-29T05:30:05;19.10;54.50
38237;DHT22;50101;49.438;11.098;2024-03-29T05:32:31;19.10;55.00
38237;DHT22;50101;49.438;11.098;2024-03-29T05:34:57;19.10;54.50
38237;DHT22;50101;49.438;11.098;2024-03-29T05:37:23;19.10;54.40
38237;DHT22;50101;49.438;11.098;2024-03-29T05:39:51;19.10;54.30
38237;DHT22;50101;49.438;11.098;2024-03-29T05:42:28;19.10;54.30
38237;DHT22;50101;49.438;11.098;2024-03-29T05:44:54;19.10;54.30
38237;DHT22;50101;49.438;11.098;2024-03-29T05:47:20;19.10;54.30
38237;DHT22;50101;49.438;11.098;2024-03-29T05:49:47;19.10;54.20
38237;DHT22;50101;49.438;11.098;2024-03-29T05:52:13;19.20;54.20
38237;DHT22;50101;49.438;11.098;2024-03-29T05:54:45;19.20;54.20
38237;DHT22;50101;49.438;11.098;2024-03-29T05:57:12;19.20;54.20
38237;DHT22;50101;49.438;11.098;2024-03-29T05:59:38;19.20;54.20
38237;DHT22;50101;49.438;11.098;2024-03-29T06:02:04;19.20;54.20
38237;DHT22;50101;49.438;11.098;2024-03-29T06:04:31;19.20;54.30
38237;DHT22;50101;49.438;11.098;2024-03-29T06:07:01;19.20;54.20
38237;DHT22;50101;49.438;11.098;2024-03-29T06:09:26;19.20;54.00
38237;DHT22;50101;49.438;11.098;2024-03-29T06:11:54;19.20;54.10
38237;DHT22;50101;49.438;11.098;2024-03-29T06:14:20;19.20;54.20
38237;DHT22;50101;49.438;11.098;2024-03-29T06:17:05;19.20;54.10
38237;DHT22;50101;49.438;11.098;2024-03-29T06:19:54;19.20;54.10
38237;DHT22;50101;49.438;11.098;2024-03-29T06:22:26;19.20;54.10
38237;DHT22;50101;49.438;11.098;2024-03-29T06:24:56;19.20;54.10
38237;DHT22;50101;49.438;11.098;2024-03-29T06:27:25;19.30;54.30
38237;DHT22;50101;49.438;11.098;2024-03-29T06:29:51;19.30;54.80
38237;DHT22;50101;49.438;11.098;2024-03-29T06:32:17;19.30;54.00
38237;DHT22;50101;49.438;11.098;2024-03-29T06:34:44;19.30;54.10
38237;DHT22;50101;49.438;11.098;2024-03-29T06:37:11;19.30;54.20
38237;DHT22;50101;49.438;11.098;2024-03-29T06:39:36;19.30;54.70
38237;DHT22;50101;49.438;11.098;2024-03-29T06:42:02;19.30;54.30
38237;DHT22;50101;49.438;11.098;2024-03-29T06:44:28;19.30;54.10
38237;DHT22;50101;49.438;11.098;2024-03-29T06:46:54;19.40;54.10
38237;DHT22;50101;49.438;11.098;2024-03-29T06:51:46;19.40;54.00
38237;DHT22;50101;49.438;11.098;2024-03-29T06:54:12;19.40;54.30
38237;DHT22;50101;49.438;11.098;2024-03-29T06:56:38;19.30;54.60
38237;DHT22;50101;49.438;11.098;2024-03-29T06:59:04;19.40;54.30
38237;DHT22;50101;49.438;11.098;2024-03-29T07:01:30;19.50;54.40
38237;DHT22;50101;49.438;11.098;2024-03-29T07:03:56;19.50;54.30
38237;DHT22;50101;49.438;11.098;2024-03-29T07:06:21;19.50;54.40
38237;DHT22;50101;49.438;11.098;2024-03-29T07:08:48;19.50;54.90
38237;DHT22;50101;49.438;11.098;2024-03-29T07:11:13;19.50;54.40
38237;DHT22;50101;49.438;11.098;2024-03-29T07:13:39;19.50;54.30
38237;DHT22;50101;49.438;11.098;2024-03-29T07:16:05;19.50;54.80
38237;DHT22;50101;49.438;11.098;2024-03-29T07:18:32;19.50;54.10
38237;DHT22;50101;49.438;11.098;2024-03-29T07:20:58;19.50;54.10
38237;DHT22;50101;49.438;11.098;2024-03-29T07:23:24;19.50;54.10
38237;DHT22;50101;49.438;11.098;2024-03-29T07:26:00;19.60;54.10
38237;DHT22;50101;49.438;11.098;2024-03-29T07:28:26;19.70;54.00
38237;DHT22;50101;49.438;11.098;2024-03-29T07:30:52;19.70;53.90
38237;DHT22;50101;49.438;11.098;2024-03-29T07:33:19;19.70;54.00
38237;DHT22;50101;49.438;11.098;2024-03-29T07:35:47;19.70;53.80
38237;DHT22;50101;49.438;11.098;2024-03-29T07:38:13;19.80;54.40
38237;DHT22;50101;49.438;11.098;2024-03-29T07:40:43;19.80;53.70
38237;DHT22;50101;49.438;11.098;2024-03-29T07:43:09;19.90;53.70
38237;DHT22;50101;49.438;11.098;2024-03-29T07:45:34;19.90;53.70
38237;DHT22;50101;49.438;11.098;2024-03-29T07:48:00;19.90;54.20
38237;DHT22;50101;49.438;11.098;2024-03-29T07:50:26;19.90;53.80
38237;DHT22;50101;49.438;11.098;2024-03-29T07:55:18;19.90;53.70
38237;DHT22;50101;49.438;11.098;2024-03-29T07:57:44;19.90;54.20
38237;DHT22;50101;49.438;11.098;2024-03-29T08:00:12;20.00;53.80
38237;DHT22;50101;49.438;11.098;2024-03-29T08:02:38;20.00;53.80
38237;DHT22;50101;49.438;11.098;2024-03-29T08:05:04;20.00;53.70
38237;DHT22;50101;49.438;11.098;2024-03-29T08:07:32;20.10;53.80
38237;DHT22;50101;49.438;11.098;2024-03-29T08:09:58;20.00;53.70
38237;DHT22;50101;49.438;11.098;2024-03-29T08:14:50;20.00;53.80
38237;DHT22;50101;49.438;11.098;2024-03-29T08:17:15;20.00;53.80
38237;DHT22;50101;49.438;11.098;2024-03-29T08:19:42;20.10;53.80
38237;DHT22;50101;49.438;11.098;2024-03-29T08:22:08;20.10;54.00
38237;DHT22;50101;49.438;11.098;2024-03-29T08:24:37;20.10;54.40
38237;DHT22;50101;49.438;11.098;2024-03-29T08:27:03;20.20;54.50
38237;DHT22;50101;49.438;11.098;2024-03-29T08:29:29;20.10;54.50
38237;DHT22;50101;49.438;11.098;2024-03-29T08:31:55;20.20;54.80
38237;DHT22;50101;49.438;11.098;2024-03-29T08:34:20;20.10;55.20
38237;DHT22;50101;49.438;11.098;2024-03-29T08:36:46;20.20;55.40
38237;DHT22;50101;49.438;11.098;2024-03-29T08:39:12;20.20;55.30
38237;DHT22;50101;49.438;11.098;2024-03-29T08:41:38;20.20;55.40
38237;DHT22;50101;49.438;11.098;2024-03-29T08:44:04;20.20;55.00
38237;DHT22;50101;49.438;11.098;2024-03-29T08:46:30;20.30;55.10
38237;DHT22;50101;49.438;11.098;2024-03-29T08:51:22;20.30;55.10
38237;DHT22;50101;49.438;11.098;2024-03-29T08:53:48;20.30;55.20
38237;DHT22;50101;49.438;11.098;2024-03-29T08:56:14;20.30;55.70
38237;DHT22;50101;49.438;11.098;2024-03-29T08:58:41;20.30;55.40
38237;DHT22;50101;49.438;11.098;2024-03-29T09:01:07;20.30;55.60
38237;DHT22;50101;49.438;11.098;2024-03-29T09:03:33;20.30;56.10
38237;DHT22;50101;49.438;11.098;2024-03-29T09:05:59;20.30;55.60
38237;DHT22;50101;49.438;11.098;2024-03-29T09:08:25;20.30;56.10
38237;DHT22;50101;49.438;11.098;2024-03-29T09:10:50;20.40;55.90
38237;DHT22;50101;49.438;11.098;2024-03-29T09:13:16;20.40;55.90
38237;DHT22;50101;49.438;11.098;2024-03-29T09:15:42;20.30;55.70
38237;DHT22;50101;49.438;11.098;2024-03-29T09:18:08;20.40;55.80
38237;DHT22;50101;49.438;11.098;2024-03-29T09:20:58;20.30;56.00
38237;DHT22;50101;49.438;11.098;2024-03-29T09:23:26;20.30;55.70
38237;DHT22;50101;49.438;11.098;2024-03-29T09:25:53;20.30;55.80
38237;DHT22;50101;49.438;11.098;2024-03-29T09:28:19;20.40;56.10
38237;DHT22;50101;49.438;11.098;2024-03-29T09:30:47;20.30;56.50
38237;DHT22;50101;49.438;11.098;2024-03-29T09:33:13;20.30;55.60
38237;DHT22;50101;49.438;11.098;2024-03-29T09:35:39;20.30;56.10
38237;DHT22;50101;49.438;11.098;2024-03-29T09:38:05;20.30;55.60
38237;DHT22;50101;49.438;11.098;2024-03-29T09:40:31;20.30;56.00
38237;DHT22;50101;49.438;11.098;2024-03-29T09:43:00;20.30;55.60
38237;DHT22;50101;49.438;11.098;2024-03-29T09:45:33;20.30;56.10
38237;DHT22;50101;49.438;11.098;2024-03-29T09:48:03;20.30;55.50
38237;DHT22;50101;49.438;11.098;2024-03-29T09:50:33;20.40;55.50
38237;DHT22;50101;49.438;11.098;2024-03-29T09:53:00;20.40;55.40
38237;DHT22;50101;49.438;11.098;2024-03-29T09:55:27;20.40;55.40
38237;DHT22;50101;49.438;11.098;2024-03-29T09:57:54;20.40;55.90
38237;DHT22;50101;49.438;11.098;2024-03-29T10:00:20;20.40;56.00
38237;DHT22;50101;49.438;11.098;2024-03-29T10:02:48;20.40;56.00
38237;DHT22;50101;49.438;11.098;2024-03-29T10:05:15;20.40;55.50
38237;DHT22;50101;49.438;11.098;2024-03-29T10:07:43;20.30;55.50
38237;DHT22;50101;49.438;11.098;2024-03-29T10:10:10;20.40;55.50
38237;DHT22;50101;49.438;11.098;2024-03-29T10:12:39;20.40;55.60
38237;DHT22;50101;49.438;11.098;2024-03-29T10:15:06;20.40;55.60
38237;DHT22;50101;49.438;11.098;2024-03-29T10:17:36;20.40;55.60
38237;DHT22;50101;49.438;11.098;2024-03-29T10:20:04;20.40;56.10
38237;DHT22;50101;49.438;11.098;2024-03-29T10:22:36;20.40;55.70
38237;DHT22;50101;49.438;11.098;2024-03-29T10:25:02;20.40;55.50
38237;DHT22;50101;49.438;11.098;2024-03-29T10:27:28;20.40;56.00
38237;DHT22;50101;49.438;11.098;2024-03-29T10:29:55;20.40;55.60
38237;DHT22;50101;49.438;11.098;2024-03-29T10:32:22;20.40;56.00
38237;DHT22;50101;49.438;11.098;2024-03-29T10:34:48;20.40;55.60
38237;DHT22;50101;49.438;11.098;2024-03-29T10:37:15;20.40;56.10
38237;DHT22;50101;49.438;11.098;2024-03-29T10:39:45;20.40;56.10
38237;DHT22;50101;49.438;11.098;2024-03-29T10:42:11;20.40;55.70
38237;DHT22;50101;49.438;11.098;2024-03-29T10:44:39;20.30;55.60
38237;DHT22;50101;49.438;11.098;2024-03-29T10:47:06;20.40;56.10
38237;DHT22;50101;49.438;11.098;2024-03-29T10:49:33;20.40;55.80
38237;DHT22;50101;49.438;11.098;2024-03-29T10:52:00;20.40;56.30
38237;DHT22;50101;49.438;11.098;2024-03-29T10:54:28;20.30;55.90
38237;DHT22;50101;49.438;11.098;2024-03-29T10:57:08;20.30;56.50
38237;DHT22;50101;49.438;11.098;2024-03-29T11:02:49;20.30;56.00
38237;DHT22;50101;49.438;11.098;2024-03-29T11:05:18;20.30;56.00
38237;DHT22;50101;49.438;11.098;2024-03-29T11:07:44;20.30;56.50
38237;DHT22;50101;49.438;11.098;2024-03-29T11:10:29;20.30;56.00
38237;DHT22;50101;49.438;11.098;2024-03-29T11:15:31;20.30;56.50
38237;DHT22;50101;49.438;11.098;2024-03-29T11:17:59;20.40;56.60
38237;DHT22;50101;49.438;11.098;2024-03-29T11:20:27;20.30;56.60
38237;DHT22;50101;49.438;11.098;2024-03-29T11:23:09;20.30;56.50
38237;DHT22;50101;49.438;11.098;2024-03-29T11:25:44;20.30;56.10
38237;DHT22;50101;49.438;11.098;2024-03-29T11:28:15;20.30;56.10
38237;DHT22;50101;49.438;11.098;2024-03-29T11:30:50;20.30;56.10
38237;DHT22;50101;49.438;11.098;2024-03-29T11:36:15;20.30;56.20
38237;DHT22;50101;49.438;11.098;2024-03-29T11:38:44;20.30;56.90
38237;DHT22;50101;49.438;11.098;2024-03-29T11:41:16;20.30;56.40
38237;DHT22;50101;49.438;11.098;2024-03-29T11:43:42;20.30;56.20
38237;DHT22;50101;49.438;11.098;2024-03-29T11:46:10;20.30;56.30
38237;DHT22;50101;49.438;11.098;2024-03-29T11:48:37;20.30;56.30
38237;DHT22;50101;49.438;11.098;2024-03-29T11:51:05;20.30;56.20
38237;DHT22;50101;49.438;11.098;2024-03-29T11:53:32;20.30;56.70
38237;DHT22;50101;49.438;11.098;2024-03-29T11:55:59;19.90;55.80
38237;DHT22;50101;49.438;11.098;2024-03-29T11:58:27;20.30;56.10
38237;DHT22;50101;49.438;11.098;2024-03-29T12:00:53;20.30;56.00
38237;DHT22;50101;49.438;11.098;2024-03-29T12:03:21;20.20;56.50
38237;DHT22;50101;49.438;11.098;2024-03-29T12:05:49;20.30;56.00
38237;DHT22;50101;49.438;11.098;2024-03-29T12:08:16;20.20;55.90
38237;DHT22;50101;49.438;11.098;2024-03-29T12:10:42;20.20;55.90
38237;DHT22;50101;49.438;11.098;2024-03-29T12:13:08;20.20;56.50
38237;DHT22;50101;49.438;11.098;2024-03-29T12:15:35;20.20;55.90
38237;DHT22;50101;49.438;11.098;2024-03-29T12:18:03;20.20;56.30
38237;DHT22;50101;49.438;11.098;2024-03-29T12:20:33;20.20;56.20
38237;DHT22;50101;49.438;11.098;2024-03-29T12:23:08;20.20;56.20
38237;DHT22;50101;49.438;11.098;2024-03-29T12:25:37;20.20;55.70
38237;DHT22;50101;49.438;11.098;2024-03-29T12:28:03;20.30;56.30
38237;DHT22;50101;49.438;11.098;2024-03-29T12:30:30;20.30;55.80
38237;DHT22;50101;49.438;11.098;2024-03-29T12:33:11;20.30;56.00
38237;DHT22;50101;49.438;11.098;2024-03-29T12:35:44;20.40;56.20
38237;DHT22;50101;49.438;11.098;2024-03-29T12:38:12;20.30;56.60
38237;DHT22;50101;49.438;11.098;2024-03-29T12:40:40;20.40;56.30
38237;DHT22;50101;49.438;11.098;2024-03-29T12:43:07;20.30;56.50
38237;DHT22;50101;49.438;11.098;2024-03-29T12:45:38;20.40;57.10
38237;DHT22;50101;49.438;11.098;2024-03-29T12:48:19;20.40;56.90
38237;DHT22;50101;49.438;11.098;2024-03-29T12:50:51;20.40;57.00
38237;DHT22;50101;49.438;11.098;2024-03-29T12:55:45;20.40;57.20
38237;DHT22;50101;49.438;11.098;2024-03-29T12:58:15;20.50;58.00
38237;DHT22;50101;49.438;11.098;2024-03-29T13:00:43;20.50;57.50
38237;DHT22;50101;49.438;11.098;2024-03-29T13:03:09;20.60;57.90
38237;DHT22;50101;49.438;11.098;2024-03-29T13:05:36;20.60;57.80
38237;DHT22;50101;49.438;11.098;2024-03-29T13:08:08;20.60;58.00
38237;DHT22;50101;49.438;11.098;2024-03-29T13:10:36;20.60;58.20
38237;DHT22;50101;49.438;11.098;2024-03-29T13:13:02;20.50;58.20
38237;DHT22;50101;49.438;11.098;2024-03-29T13:15:31;20.50;58.10
38237;DHT22;50101;49.438;11.098;2024-03-29T13:17:57;20.50;58.60
38237;DHT22;50101;49.438;11.098;2024-03-29T13:20:24;20.50;58.30
38237;DHT22;50101;49.438;11.098;2024-03-29T13:22:51;20.40;58.20
38237;DHT22;50101;49.438;11.098;2024-03-29T13:25:18;20.50;58.30
38237;DHT22;50101;49.438;11.098;2024-03-29T13:27:46;20.50;58.70
38237;DHT22;50101;49.438;11.098;2024-03-29T13:30:13;20.50;58.10
38237;DHT22;50101;49.438;11.098;2024-03-29T13:32:42;20.50;58.20
38237;DHT22;50101;49.438;11.098;2024-03-29T13:35:10;20.50;58.20
38237;DHT22;50101;49.438;11.098;2024-03-29T13:37:44;20.50;58.00
38237;DHT22;50101;49.438;11.098;2024-03-29T13:40:16;20.50;58.10
38237;DHT22;50101;49.438;11.098;2024-03-29T13:42:43;20.50;57.90
38237;DHT22;50101;49.438;11.098;2024-03-29T13:45:09;20.50;58.40
38237;DHT22;50101;49.438;11.098;2024-03-29T13:47:37;20.60;58.00
38237;DHT22;50101;49.438;11.098;2024-03-29T13:50:03;20.60;57.70
38237;DHT22;50101;49.438;11.098;2024-03-29T13:52:29;20.60;57.70
38237;DHT22;50101;49.438;11.098;2024-03-29T13:54:56;20.60;57.70
38237;DHT22;50101;49.438;11.098;2024-03-29T13:57:22;20.60;58.30
38237;DHT22;50101;49.438;11.098;2024-03-29T13:59:47;20.60;57.80
38237;DHT22;50101;49.438;11.098;2024-03-29T14:02:15;20.60;57.70
38237;DHT22;50101;49.438;11.098;2024-03-29T14:04:42;20.60;57.80
38237;DHT22;50101;49.438;11.098;2024-03-29T14:07:09;20.60;57.70
38237;DHT22;50101;49.438;11.098;2024-03-29T14:09:40;20.60;57.60
38237;DHT22;50101;49.438;11.098;2024-03-29T14:12:06;20.60;57.60
38237;DHT22;50101;49.438;11.098;2024-03-29T14:14:33;20.60;57.60
38237;DHT22;50101;49.438;11.098;2024-03-29T14:16:59;20.60;57.60
38237;DHT22;50101;49.438;11.098;2024-03-29T14:19:30;20.60;58.10
38237;DHT22;50101;49.438;11.098;2024-03-29T14:21:56;20.60;57.90
38237;DHT22;50101;49.438;11.098;2024-03-29T14:24:22;20.60;57.80
38237;DHT22;50101;49.438;11.098;2024-03-29T14:26:51;20.60;58.30
38237;DHT22;50101;49.438;11.098;2024-03-29T14:29:18;20.60;57.70
38237;DHT22;50101;49.438;11.098;2024-03-29T14:31:50;20.60;57.70
38237;DHT22;50101;49.438;11.098;2024-03-29T14:34:16;20.60;57.60
38237;DHT22;50101;49.438;11.098;2024-03-29T14:36:43;20.60;57.80
38237;DHT22;50101;49.438;11.098;2024-03-29T14:39:10;20.70;58.20
38237;DHT22;50101;49.438;11.098;2024-03-29T14:41:39;20.70;58.20
38237;DHT22;50101;49.438;11.098;2024-03-29T14:44:06;20.80;58.10
38237;DHT22;50101;49.438;11.098;2024-03-29T14:46:33;20.70;58.10
38237;DHT22;50101;49.438;11.098;2024-03-29T14:49:00;20.70;58.10
38237;DHT22;50101;49.438;11.098;2024-03-29T14:51:26;20.70;58.30
38237;DHT22;50101;49.438;11.098;2024-03-29T14:53:54;20.70;58.20
38237;DHT22;50101;49.438;11.098;2024-03-29T14:56:20;20.70;58.50
38237;DHT22;50101;49.438;11.098;2024-03-29T14:58:46;20.90;58.40
38237;DHT22;50101;49.438;11.098;2024-03-29T15:01:12;20.90;58.80
38237;DHT22;50101;49.438;11.098;2024-03-29T15:03:38;20.70;58.20
38237;DHT22;50101;49.438;11.098;2024-03-29T15:06:05;20.70;58.70
38237;DHT22;50101;49.438;11.098;2024-03-29T15:08:31;20.60;58.10
38237;DHT22;50101;49.438;11.098;2024-03-29T15:10:58;20.60;58.60
38237;DHT22;50101;49.438;11.098;2024-03-29T15:13:24;20.60;58.10
38237;DHT22;50101;49.438;11.098;2024-03-29T15:15:56;20.60;58.10
38237;DHT22;50101;49.438;11.098;2024-03-29T15:18:23;20.60;58.00
38237;DHT22;50101;49.438;11.098;2024-03-29T15:23:21;20.60;58.00
38237;DHT22;50101;49.438;11.098;2024-03-29T15:25:54;20.60;58.00
38237;DHT22;50101;49.438;11.098;2024-03-29T15:28:21;20.60;57.80
38237;DHT22;50101;49.438;11.098;2024-03-29T15:31:10;20.60;57.80
38237;DHT22;50101;49.438;11.098;2024-03-29T15:33:39;20.60;57.80
38237;DHT22;50101;49.438;11.098;2024-03-29T15:36:05;20.60;57.90
38237;DHT22;50101;49.438;11.098;2024-03-29T15:38:33;20.60;57.80
38237;DHT22;50101;49.438;11.098;2024-03-29T15:40:59;20.60;57.90
38237;DHT22;50101;49.438;11.098;2024-03-29T15:43:28;20.50;57.80
38237;DHT22;50101;49.438;11.098;2024-03-29T15:45:55;20.50;57.90
38237;DHT22;50101;49.438;11.098;2024-03-29T15:48:22;20.50;58.00
38237;DHT22;50101;49.438;11.098;2024-03-29T15:50:48;20.50;58.00
38237;DHT22;50101;49.438;11.098;2024-03-29T15:53:13;20.40;57.80